sensor_id;sensor_type;location;lat;lon;timestamp;pressure;altitude;pressure_sealevel;temperature
66403;BMP180;53212;52.112;5.144;2023-07-31T00:00:05;100927.20;;;16.30
66403;BMP180;53212;52.112;5.144;2023-07-31T00:02:31;100927.60;;;16.30
66403;BMP180;53212;52.112;5.144;2023-07-31T00:04:56;100923.80;;;16.30
66403;BMP180;53212;52.112;5.144;2023-07-31T00:07:22;100922.80;;;16.40
66403;BMP180;53212;52.112;5.144;2023-07-31T00:09:47;100919.80;;;16.40
66403;BMP180;53212;52.112;5.144;2023-07-31T00:12:13;100918.40;;;16.50
66403;BMP180;53212;52.112;5.144;2023-07-31T00:14:38;100917.80;;;16.50
66403;BMP180;53212;52.112;5.144;2023-07-31T00:17:04;100913.00;;;16.50
66403;BMP180;53212;52.112;5.144;2023-07-31T00:19:30;100914.60;;;16.58
66403;BMP180;53212;52.112;5.144;2023-07-31T00:21:55;100912.00;;;16.60
66403;BMP180;53212;52.112;5.144;2023-07-31T00:24:21;100910.40;;;16.60
66403;BMP180;53212;52.112;5.144;2023-07-31T00:26:46;100908.80;;;16.60
66403;BMP180;53212;52.112;5.144;2023-07-31T00:29:11;100913.40;;;16.70
66403;BMP180;53212;52.112;5.144;2023-07-31T00:31:37;100907.00;;;16.70
66403;BMP180;53212;52.112;5.144;2023-07-31T00:34:02;100907.80;;;16.80
66403;BMP180;53212;52.112;5.144;2023-07-31T00:36:28;100905.20;;;16.80
66403;BMP180;53212;52.112;5.144;2023-07-31T00:38:53;100906.60;;;16.80
66403;BMP180;53212;52.112;5.144;2023-07-31T00:41:19;100909.80;;;16.80
66403;BMP180;53212;52.112;5.144;2023-07-31T00:43:44;100911.20;;;16.80
66403;BMP180;53212;52.112;5.144;2023-07-31T00:46:10;100908.60;;;16.80
66403;BMP180;53212;52.112;5.144;2023-07-31T00:48:36;100912.20;;;16.80
66403;BMP180;53212;52.112;5.144;2023-07-31T00:51:02;100904.40;;;16.80
66403;BMP180;53212;52.112;5.144;2023-07-31T00:53:28;100907.80;;;16.80
66403;BMP180;53212;52.112;5.144;2023-07-31T00:55:53;100904.20;;;16.80
66403;BMP180;53212;52.112;5.144;2023-07-31T00:58:19;100909.00;;;16.80
66403;BMP180;53212;52.112;5.144;2023-07-31T01:00:45;100919.40;;;16.78
66403;BMP180;53212;52.112;5.144;2023-07-31T01:03:11;100912.60;;;16.60
66403;BMP180;53212;52.112;5.144;2023-07-31T01:09:11;100906.80;;;16.40
66403;BMP180;53212;52.112;5.144;2023-07-31T01:11:30;100899.40;;;16.38
66403;BMP180;53212;52.112;5.144;2023-07-31T01:13:58;100894.80;;;16.40
66403;BMP180;53212;52.112;5.144;2023-07-31T01:16:25;100894.00;;;16.40
66403;BMP180;53212;52.112;5.144;2023-07-31T01:18:52;100903.00;;;16.50
66403;BMP180;53212;52.112;5.144;2023-07-31T01:21:45;100902.40;;;16.54
66403;BMP180;53212;52.112;5.144;2023-07-31T01:24:23;100893.80;;;16.60
66403;BMP180;53212;52.112;5.144;2023-07-31T01:27:06;100894.20;;;16.60
66403;BMP180;53212;52.112;5.144;2023-07-31T01:30:02;100899.60;;;16.60
66403;BMP180;53212;52.112;5.144;2023-07-31T01:32:29;100890.40;;;16.62
66403;BMP180;53212;52.112;5.144;2023-07-31T01:34:57;100891.80;;;16.60
66403;BMP180;53212;52.112;5.144;2023-07-31T01:37:29;100897.60;;;16.60
66403;BMP180;53212;52.112;5.144;2023-07-31T01:39:55;100888.20;;;16.60
66403;BMP180;53212;52.112;5.144;2023-07-31T01:42:20;100896.60;;;16.60
66403;BMP180;53212;52.112;5.144;2023-07-31T01:44:46;100889.40;;;16.60
66403;BMP180;53212;52.112;5.144;2023-07-31T01:47:11;100901.00;;;16.60
66403;BMP180;53212;52.112;5.144;2023-07-31T01:49:37;100897.00;;;16.62
66403;BMP180;53212;52.112;5.144;2023-07-31T01:52:02;100893.40;;;16.66
66403;BMP180;53212;52.112;5.144;2023-07-31T01:54:28;100890.80;;;16.62
66403;BMP180;53212;52.112;5.144;2023-07-31T01:56:53;100888.20;;;16.60
66403;BMP180;53212;52.112;5.144;2023-07-31T01:59:19;100885.00;;;16.60
66403;BMP180;53212;52.112;5.144;2023-07-31T02:01:44;100876.20;;;16.60
66403;BMP180;53212;52.112;5.144;2023-07-31T02:04:10;100868.00;;;16.60
66403;BMP180;53212;52.112;5.144;2023-07-31T02:06:35;100866.60;;;16.58
66403;BMP180;53212;52.112;5.144;2023-07-31T02:09:00;100861.40;;;16.50
66403;BMP180;53212;52.112;5.144;2023-07-31T02:11:26;100856.60;;;16.50
66403;BMP180;53212;52.112;5.144;2023-07-31T02:13:51;100856.60;;;16.50
66403;BMP180;53212;52.112;5.144;2023-07-31T02:16:17;100842.00;;;16.48
66403;BMP180;53212;52.112;5.144;2023-07-31T02:18:42;100837.80;;;16.40
66403;BMP180;53212;52.112;5.144;2023-07-31T02:21:07;100833.60;;;16.40
66403;BMP180;53212;52.112;5.144;2023-07-31T02:23:33;100832.60;;;16.50
66403;BMP180;53212;52.112;5.144;2023-07-31T02:25:58;100828.20;;;16.50
66403;BMP180;53212;52.112;5.144;2023-07-31T02:28:25;100832.40;;;16.50
66403;BMP180;53212;52.112;5.144;2023-07-31T02:30:50;100829.20;;;16.50
66403;BMP180;53212;52.112;5.144;2023-07-31T02:33:17;100831.60;;;16.50
66403;BMP180;53212;52.112;5.144;2023-07-31T02:35:42;100832.80;;;16.50
66403;BMP180;53212;52.112;5.144;2023-07-31T02:38:08;100838.40;;;16.50
66403;BMP180;53212;52.112;5.144;2023-07-31T02:40:33;100837.80;;;16.52
66403;BMP180;53212;52.112;5.144;2023-07-31T02:42:59;100827.60;;;16.60
66403;BMP180;53212;52.112;5.144;2023-07-31T02:45:24;100826.80;;;16.60
66403;BMP180;53212;52.112;5.144;2023-07-31T02:47:50;100828.20;;;16.60
66403;BMP180;53212;52.112;5.144;2023-07-31T02:50:15;100827.60;;;16.60
66403;BMP180;53212;52.112;5.144;2023-07-31T02:52:40;100819.00;;;16.60
66403;BMP180;53212;52.112;5.144;2023-07-31T02:55:06;100812.60;;;16.66
66403;BMP180;53212;52.112;5.144;2023-07-31T02:57:32;100809.40;;;16.62
66403;BMP180;53212;52.112;5.144;2023-07-31T02:59:57;100809.00;;;16.64
66403;BMP180;53212;52.112;5.144;2023-07-31T03:02:23;100809.00;;;16.66
66403;BMP180;53212;52.112;5.144;2023-07-31T03:04:48;100807.00;;;16.70
66403;BMP180;53212;52.112;5.144;2023-07-31T03:07:14;100807.60;;;16.70
66403;BMP180;53212;52.112;5.144;2023-07-31T03:09:39;100807.00;;;16.70
66403;BMP180;53212;52.112;5.144;2023-07-31T03:12:05;100802.40;;;16.70
66403;BMP180;53212;52.112;5.144;2023-07-31T03:14:31;100805.60;;;16.70
66403;BMP180;53212;52.112;5.144;2023-07-31T03:16:56;100808.00;;;16.70
66403;BMP180;53212;52.112;5.144;2023-07-31T03:19:22;100802.40;;;16.70
66403;BMP180;53212;52.112;5.144;2023-07-31T03:21:47;100805.60;;;16.70
66403;BMP180;53212;52.112;5.144;2023-07-31T03:24:12;100805.00;;;16.70
66403;BMP180;53212;52.112;5.144;2023-07-31T03:26:38;100799.40;;;16.70
66403;BMP180;53212;52.112;5.144;2023-07-31T03:29:06;100802.60;;;16.70
66403;BMP180;53212;52.112;5.144;2023-07-31T03:31:32;100805.00;;;16.70
66403;BMP180;53212;52.112;5.144;2023-07-31T03:33:57;100801.40;;;16.70
66403;BMP180;53212;52.112;5.144;2023-07-31T03:36:23;100799.00;;;16.70
66403;BMP180;53212;52.112;5.144;2023-07-31T03:38:48;100792.40;;;16.66
66403;BMP180;53212;52.112;5.144;2023-07-31T03:41:14;100794.60;;;16.60
66403;BMP180;53212;52.112;5.144;2023-07-31T03:43:39;100794.60;;;16.60
66403;BMP180;53212;52.112;5.144;2023-07-31T03:46:04;100793.80;;;16.60
66403;BMP180;53212;52.112;5.144;2023-07-31T03:48:30;100796.00;;;16.60
66403;BMP180;53212;52.112;5.144;2023-07-31T03:50:55;100789.20;;;16.60
66403;BMP180;53212;52.112;5.144;2023-07-31T03:53:21;100784.00;;;16.60
66403;BMP180;53212;52.112;5.144;2023-07-31T03:55:47;100784.80;;;16.60
66403;BMP180;53212;52.112;5.144;2023-07-31T03:58:12;100785.60;;;16.60
66403;BMP180;53212;52.112;5.144;2023-07-31T04:00:39;100782.20;;;16.60
66403;BMP180;53212;52.112;5.144;2023-07-31T04:03:04;100777.00;;;16.60
66403;BMP180;53212;52.112;5.144;2023-07-31T04:05:32;100771.60;;;16.60
66403;BMP180;53212;52.112;5.144;2023-07-31T04:07:58;100767.40;;;16.60
66403;BMP180;53212;52.112;5.144;2023-07-31T04:10:23;100770.20;;;16.60
66403;BMP180;53212;52.112;5.144;2023-07-31T04:12:48;100765.80;;;16.60
66403;BMP180;53212;52.112;5.144;2023-07-31T04:15:14;100760.80;;;16.60
66403;BMP180;53212;52.112;5.144;2023-07-31T04:17:39;100753.80;;;16.60
66403;BMP180;53212;52.112;5.144;2023-07-31T04:20:05;100751.40;;;16.62
66403;BMP180;53212;52.112;5.144;2023-07-31T04:22:31;100751.60;;;16.60
66403;BMP180;53212;52.112;5.144;2023-07-31T04:24:56;100748.00;;;16.60
66403;BMP180;53212;52.112;5.144;2023-07-31T04:27:22;100751.80;;;16.60
66403;BMP180;53212;52.112;5.144;2023-07-31T04:29:47;100747.40;;;16.60
66403;BMP180;53212;52.112;5.144;2023-07-31T04:32:13;100754.20;;;16.60
66403;BMP180;53212;52.112;5.144;2023-07-31T04:34:40;100752.60;;;16.50
66403;BMP180;53212;52.112;5.144;2023-07-31T04:37:06;100749.20;;;16.50
66403;BMP180;53212;52.112;5.144;2023-07-31T04:39:31;100754.40;;;16.50
66403;BMP180;53212;52.112;5.144;2023-07-31T04:41:57;100746.40;;;16.40
66403;BMP180;53212;52.112;5.144;2023-07-31T04:44:22;100752.60;;;16.30
66403;BMP180;53212;52.112;5.144;2023-07-31T04:46:48;100752.80;;;16.40
66403;BMP180;53212;52.112;5.144;2023-07-31T04:49:13;100745.20;;;16.40
66403;BMP180;53212;52.112;5.144;2023-07-31T04:51:39;100741.80;;;16.32
66403;BMP180;53212;52.112;5.144;2023-07-31T04:54:04;100735.80;;;16.36
66403;BMP180;53212;52.112;5.144;2023-07-31T04:56:29;100727.40;;;16.40
66403;BMP180;53212;52.112;5.144;2023-07-31T04:58:55;100731.80;;;16.40
66403;BMP180;53212;52.112;5.144;2023-07-31T05:01:20;100730.60;;;16.44
66403;BMP180;53212;52.112;5.144;2023-07-31T05:03:46;100726.40;;;16.50
66403;BMP180;53212;52.112;5.144;2023-07-31T05:06:11;100728.00;;;16.48
66403;BMP180;53212;52.112;5.144;2023-07-31T05:08:38;100724.00;;;16.50
66403;BMP180;53212;52.112;5.144;2023-07-31T05:11:04;100726.00;;;16.50
66403;BMP180;53212;52.112;5.144;2023-07-31T05:13:29;100723.60;;;16.50
66403;BMP180;53212;52.112;5.144;2023-07-31T05:15:55;100724.40;;;16.40
66403;BMP180;53212;52.112;5.144;2023-07-31T05:18:20;100722.40;;;16.40
66403;BMP180;53212;52.112;5.144;2023-07-31T05:20:45;100719.60;;;16.40
66403;BMP180;53212;52.112;5.144;2023-07-31T05:23:11;100717.40;;;16.40
66403;BMP180;53212;52.112;5.144;2023-07-31T05:25:36;100715.40;;;16.40
66403;BMP180;53212;52.112;5.144;2023-07-31T05:28:01;100711.80;;;16.40
66403;BMP180;53212;52.112;5.144;2023-07-31T05:30:30;100709.40;;;16.34
66403;BMP180;53212;52.112;5.144;2023-07-31T05:32:56;100705.20;;;16.40
66403;BMP180;53212;52.112;5.144;2023-07-31T05:35:21;100698.20;;;16.40
66403;BMP180;53212;52.112;5.144;2023-07-31T05:37:46;100696.40;;;16.40
66403;BMP180;53212;52.112;5.144;2023-07-31T05:40:12;100693.80;;;16.40
66403;BMP180;53212;52.112;5.144;2023-07-31T05:42:37;100688.80;;;16.40
66403;BMP180;53212;52.112;5.144;2023-07-31T05:45:06;100685.20;;;16.40
66403;BMP180;53212;52.112;5.144;2023-07-31T05:47:31;100676.20;;;16.50
66403;BMP180;53212;52.112;5.144;2023-07-31T05:49:57;100677.40;;;16.42
66403;BMP180;53212;52.112;5.144;2023-07-31T05:52:22;100673.40;;;16.50
66403;BMP180;53212;52.112;5.144;2023-07-31T05:54:48;100673.60;;;16.50
66403;BMP180;53212;52.112;5.144;2023-07-31T05:57:13;100674.80;;;16.50
66403;BMP180;53212;52.112;5.144;2023-07-31T05:59:39;100674.40;;;16.56
66403;BMP180;53212;52.112;5.144;2023-07-31T06:02:05;100671.20;;;16.60
66403;BMP180;53212;52.112;5.144;2023-07-31T06:04:31;100669.80;;;16.60
66403;BMP180;53212;52.112;5.144;2023-07-31T06:06:56;100669.40;;;16.60
66403;BMP180;53212;52.112;5.144;2023-07-31T06:09:22;100664.40;;;16.60
66403;BMP180;53212;52.112;5.144;2023-07-31T06:11:47;100661.00;;;16.60
66403;BMP180;53212;52.112;5.144;2023-07-31T06:14:13;100658.60;;;16.60
66403;BMP180;53212;52.112;5.144;2023-07-31T06:16:38;100654.40;;;16.70
66403;BMP180;53212;52.112;5.144;2023-07-31T06:19:03;100649.40;;;16.70
66403;BMP180;53212;52.112;5.144;2023-07-31T06:21:29;100649.60;;;16.76
66403;BMP180;53212;52.112;5.144;2023-07-31T06:23:55;100654.20;;;16.80
66403;BMP180;53212;52.112;5.144;2023-07-31T06:26:20;100652.80;;;16.80
66403;BMP180;53212;52.112;5.144;2023-07-31T06:28:46;100653.40;;;16.86
66403;BMP180;53212;52.112;5.144;2023-07-31T06:31:11;100653.60;;;16.90
66403;BMP180;53212;52.112;5.144;2023-07-31T06:33:37;100651.80;;;16.94
66403;BMP180;53212;52.112;5.144;2023-07-31T06:36:02;100643.20;;;16.90
66403;BMP180;53212;52.112;5.144;2023-07-31T06:38:28;100640.00;;;17.00
66403;BMP180;53212;52.112;5.144;2023-07-31T06:40:54;100637.20;;;17.00
66403;BMP180;53212;52.112;5.144;2023-07-31T06:43:19;100634.00;;;17.00
66403;BMP180;53212;52.112;5.144;2023-07-31T06:45:45;100627.60;;;17.00
66403;BMP180;53212;52.112;5.144;2023-07-31T06:48:11;100622.80;;;17.00
66403;BMP180;53212;52.112;5.144;2023-07-31T06:50:37;100623.40;;;17.00
66403;BMP180;53212;52.112;5.144;2023-07-31T06:53:02;100615.80;;;17.10
66403;BMP180;53212;52.112;5.144;2023-07-31T06:55:28;100609.60;;;17.20
66403;BMP180;53212;52.112;5.144;2023-07-31T06:57:55;100615.80;;;17.20
66403;BMP180;53212;52.112;5.144;2023-07-31T07:00:22;100610.60;;;17.28
66403;BMP180;53212;52.112;5.144;2023-07-31T07:02:49;100615.20;;;17.30
66403;BMP180;53212;52.112;5.144;2023-07-31T07:05:16;100608.00;;;17.40
66403;BMP180;53212;52.112;5.144;2023-07-31T07:07:42;100604.80;;;17.50
66403;BMP180;53212;52.112;5.144;2023-07-31T07:10:08;100607.80;;;17.50
66403;BMP180;53212;52.112;5.144;2023-07-31T07:12:34;100610.60;;;17.50
66403;BMP180;53212;52.112;5.144;2023-07-31T07:15:01;100616.00;;;17.50
66403;BMP180;53212;52.112;5.144;2023-07-31T07:17:28;100612.60;;;17.50
66403;BMP180;53212;52.112;5.144;2023-07-31T07:19:56;100607.60;;;17.50
66403;BMP180;53212;52.112;5.144;2023-07-31T07:22:22;100618.00;;;17.50
66403;BMP180;53212;52.112;5.144;2023-07-31T07:24:48;100617.60;;;17.50
66403;BMP180;53212;52.112;5.144;2023-07-31T07:27:13;100617.60;;;17.44
66403;BMP180;53212;52.112;5.144;2023-07-31T07:29:38;100610.60;;;17.50
66403;BMP180;53212;52.112;5.144;2023-07-31T07:32:05;100609.60;;;17.50
66403;BMP180;53212;52.112;5.144;2023-07-31T07:34:30;100613.00;;;17.50
66403;BMP180;53212;52.112;5.144;2023-07-31T07:36:56;100607.80;;;17.60
66403;BMP180;53212;52.112;5.144;2023-07-31T07:39:21;100611.80;;;17.60
66403;BMP180;53212;52.112;5.144;2023-07-31T07:41:47;100612.60;;;17.70
66403;BMP180;53212;52.112;5.144;2023-07-31T07:44:13;100606.20;;;17.80
66403;BMP180;53212;52.112;5.144;2023-07-31T07:46:39;100611.60;;;17.90
66403;BMP180;53212;52.112;5.144;2023-07-31T07:49:05;100604.80;;;18.00
66403;BMP180;53212;52.112;5.144;2023-07-31T07:51:30;100608.00;;;18.10
66403;BMP180;53212;52.112;5.144;2023-07-31T07:53:58;100606.00;;;18.18
66403;BMP180;53212;52.112;5.144;2023-07-31T07:56:25;100599.80;;;18.26
66403;BMP180;53212;52.112;5.144;2023-07-31T07:58:51;100602.20;;;18.30
66403;BMP180;53212;52.112;5.144;2023-07-31T08:01:16;100602.20;;;18.20
66403;BMP180;53212;52.112;5.144;2023-07-31T08:03:42;100599.40;;;18.20
66403;BMP180;53212;52.112;5.144;2023-07-31T08:06:09;100592.00;;;18.20
66403;BMP180;53212;52.112;5.144;2023-07-31T08:08:35;100595.20;;;18.10
66403;BMP180;53212;52.112;5.144;2023-07-31T08:11:01;100592.20;;;18.10
66403;BMP180;53212;52.112;5.144;2023-07-31T08:13:27;100582.20;;;18.20
66403;BMP180;53212;52.112;5.144;2023-07-31T08:15:52;100580.40;;;18.38
66403;BMP180;53212;52.112;5.144;2023-07-31T08:18:18;100568.00;;;18.40
66403;BMP180;53212;52.112;5.144;2023-07-31T08:20:44;100568.80;;;18.40
66403;BMP180;53212;52.112;5.144;2023-07-31T08:23:10;100563.20;;;18.40
66403;BMP180;53212;52.112;5.144;2023-07-31T08:25:36;100575.80;;;18.42
66403;BMP180;53212;52.112;5.144;2023-07-31T08:28:03;100576.60;;;18.50
66403;BMP180;53212;52.112;5.144;2023-07-31T08:30:29;100569.00;;;18.80
66403;BMP180;53212;52.112;5.144;2023-07-31T08:32:54;100572.60;;;18.90
66403;BMP180;53212;52.112;5.144;2023-07-31T08:35:19;100569.80;;;19.10
66403;BMP180;53212;52.112;5.144;2023-07-31T08:37:45;100566.00;;;19.32
66403;BMP180;53212;52.112;5.144;2023-07-31T08:40:11;100569.40;;;19.26
66403;BMP180;53212;52.112;5.144;2023-07-31T08:42:47;100566.60;;;19.30
66403;BMP180;53212;52.112;5.144;2023-07-31T08:45:19;100569.60;;;19.30
66403;BMP180;53212;52.112;5.144;2023-07-31T08:47:51;100569.60;;;19.30
66403;BMP180;53212;52.112;5.144;2023-07-31T08:50:20;100562.80;;;19.14
66403;BMP180;53212;52.112;5.144;2023-07-31T08:52:47;100566.20;;;19.10
66403;BMP180;53212;52.112;5.144;2023-07-31T08:55:14;100565.60;;;18.98
66403;BMP180;53212;52.112;5.144;2023-07-31T08:57:41;100564.00;;;18.90
66403;BMP180;53212;52.112;5.144;2023-07-31T09:00:09;100565.80;;;18.90
66403;BMP180;53212;52.112;5.144;2023-07-31T09:02:43;100566.20;;;18.90
66403;BMP180;53212;52.112;5.144;2023-07-31T09:05:11;100569.60;;;18.92
66403;BMP180;53212;52.112;5.144;2023-07-31T09:07:37;100566.20;;;19.00
66403;BMP180;53212;52.112;5.144;2023-07-31T09:10:04;100576.80;;;19.00
66403;BMP180;53212;52.112;5.144;2023-07-31T09:12:30;100576.20;;;19.14
66403;BMP180;53212;52.112;5.144;2023-07-31T09:14:57;100580.80;;;19.30
66403;BMP180;53212;52.112;5.144;2023-07-31T09:17:35;100568.20;;;19.50
66403;BMP180;53212;52.112;5.144;2023-07-31T09:20:18;100567.20;;;19.44
66403;BMP180;53212;52.112;5.144;2023-07-31T09:22:46;100561.40;;;19.50
66403;BMP180;53212;52.112;5.144;2023-07-31T09:28:08;100555.40;;;19.54
66403;BMP180;53212;52.112;5.144;2023-07-31T09:30:51;100558.00;;;19.80
66403;BMP180;53212;52.112;5.144;2023-07-31T09:33:18;100556.80;;;19.80
66403;BMP180;53212;52.112;5.144;2023-07-31T09:35:44;100555.20;;;19.80
66403;BMP180;53212;52.112;5.144;2023-07-31T09:38:13;100550.60;;;19.74
66403;BMP180;53212;52.112;5.144;2023-07-31T09:40:41;100559.60;;;19.90
66403;BMP180;53212;52.112;5.144;2023-07-31T09:43:10;100554.20;;;19.90
66403;BMP180;53212;52.112;5.144;2023-07-31T09:45:41;100551.00;;;19.90
66403;BMP180;53212;52.112;5.144;2023-07-31T09:48:11;100550.60;;;20.00
66403;BMP180;53212;52.112;5.144;2023-07-31T09:50:39;100546.60;;;20.20
66403;BMP180;53212;52.112;5.144;2023-07-31T09:53:09;100556.60;;;20.40
66403;BMP180;53212;52.112;5.144;2023-07-31T09:55:36;100554.00;;;20.32
66403;BMP180;53212;52.112;5.144;2023-07-31T09:58:10;100551.80;;;20.30
66403;BMP180;53212;52.112;5.144;2023-07-31T10:00:37;100556.60;;;20.26
66403;BMP180;53212;52.112;5.144;2023-07-31T10:03:09;100554.80;;;20.20
66403;BMP180;53212;52.112;5.144;2023-07-31T10:05:45;100560.40;;;20.18
66403;BMP180;53212;52.112;5.144;2023-07-31T10:08:15;100550.60;;;20.28
66403;BMP180;53212;52.112;5.144;2023-07-31T10:10:45;100541.80;;;20.40
66403;BMP180;53212;52.112;5.144;2023-07-31T10:13:12;100547.80;;;20.30
66403;BMP180;53212;52.112;5.144;2023-07-31T10:15:38;100554.00;;;20.04
66403;BMP180;53212;52.112;5.144;2023-07-31T10:18:06;100558.60;;;19.90
66403;BMP180;53212;52.112;5.144;2023-07-31T10:20:32;100554.40;;;19.70
66403;BMP180;53212;52.112;5.144;2023-07-31T10:22:58;100553.80;;;19.66
66403;BMP180;53212;52.112;5.144;2023-07-31T10:25:26;100552.80;;;19.50
66403;BMP180;53212;52.112;5.144;2023-07-31T10:27:52;100554.20;;;19.62
66403;BMP180;53212;52.112;5.144;2023-07-31T10:30:22;100551.80;;;19.70
66403;BMP180;53212;52.112;5.144;2023-07-31T10:32:51;100553.20;;;19.60
66403;BMP180;53212;52.112;5.144;2023-07-31T10:35:17;100550.20;;;19.50
66403;BMP180;53212;52.112;5.144;2023-07-31T10:37:43;100550.20;;;19.40
66403;BMP180;53212;52.112;5.144;2023-07-31T10:40:16;100546.60;;;19.40
66403;BMP180;53212;52.112;5.144;2023-07-31T10:42:54;100547.20;;;19.50
66403;BMP180;53212;52.112;5.144;2023-07-31T10:45:41;100552.60;;;19.60
66403;BMP180;53212;52.112;5.144;2023-07-31T10:48:15;100551.60;;;19.50
66403;BMP180;53212;52.112;5.144;2023-07-31T10:50:56;100557.60;;;19.50
66403;BMP180;53212;52.112;5.144;2023-07-31T10:53:40;100557.00;;;19.50
66403;BMP180;53212;52.112;5.144;2023-07-31T10:56:09;100551.20;;;19.60
66403;BMP180;53212;52.112;5.144;2023-07-31T10:58:38;100549.60;;;19.70
66403;BMP180;53212;52.112;5.144;2023-07-31T11:01:05;100550.40;;;19.86
66403;BMP180;53212;52.112;5.144;2023-07-31T11:03:49;100550.00;;;19.90
66403;BMP180;53212;52.112;5.144;2023-07-31T11:06:17;100550.20;;;19.90
66403;BMP180;53212;52.112;5.144;2023-07-31T11:08:46;100555.00;;;20.00
66403;BMP180;53212;52.112;5.144;2023-07-31T11:11:14;100557.60;;;19.90
66403;BMP180;53212;52.112;5.144;2023-07-31T11:13:49;100553.60;;;19.80
66403;BMP180;53212;52.112;5.144;2023-07-31T11:16:16;100549.60;;;19.80
66403;BMP180;53212;52.112;5.144;2023-07-31T11:18:44;100550.00;;;19.80
66403;BMP180;53212;52.112;5.144;2023-07-31T11:21:15;100549.80;;;20.00
66403;BMP180;53212;52.112;5.144;2023-07-31T11:23:45;100551.60;;;19.90
66403;BMP180;53212;52.112;5.144;2023-07-31T11:26:11;100540.00;;;19.90
66403;BMP180;53212;52.112;5.144;2023-07-31T11:28:37;100544.00;;;20.00
66403;BMP180;53212;52.112;5.144;2023-07-31T11:31:04;100543.00;;;19.90
66403;BMP180;53212;52.112;5.144;2023-07-31T11:33:30;100546.20;;;19.80
66403;BMP180;53212;52.112;5.144;2023-07-31T11:35:55;100539.40;;;19.70
66403;BMP180;53212;52.112;5.144;2023-07-31T11:38:26;100538.60;;;19.50
66403;BMP180;53212;52.112;5.144;2023-07-31T11:41:00;100540.20;;;19.30
66403;BMP180;53212;52.112;5.144;2023-07-31T11:43:28;100537.60;;;19.10
66403;BMP180;53212;52.112;5.144;2023-07-31T11:45:58;100532.00;;;19.10
66403;BMP180;53212;52.112;5.144;2023-07-31T11:48:37;100540.20;;;19.10
66403;BMP180;53212;52.112;5.144;2023-07-31T11:51:10;100532.20;;;19.20
66403;BMP180;53212;52.112;5.144;2023-07-31T11:53:54;100528.60;;;19.28
66403;BMP180;53212;52.112;5.144;2023-07-31T11:56:23;100529.00;;;19.34
66403;BMP180;53212;52.112;5.144;2023-07-31T11:58:53;100525.60;;;19.30
66403;BMP180;53212;52.112;5.144;2023-07-31T12:01:21;100532.60;;;19.30
66403;BMP180;53212;52.112;5.144;2023-07-31T12:03:47;100534.00;;;19.30
66403;BMP180;53212;52.112;5.144;2023-07-31T12:06:13;100539.00;;;19.30
66403;BMP180;53212;52.112;5.144;2023-07-31T12:08:39;100537.80;;;19.40
66403;BMP180;53212;52.112;5.144;2023-07-31T12:11:07;100536.80;;;19.40
66403;BMP180;53212;52.112;5.144;2023-07-31T12:13:35;100540.40;;;19.40
66403;BMP180;53212;52.112;5.144;2023-07-31T12:16:02;100548.60;;;19.38
66403;BMP180;53212;52.112;5.144;2023-07-31T12:18:31;100540.40;;;19.30
66403;BMP180;53212;52.112;5.144;2023-07-31T12:21:01;100538.40;;;19.30
66403;BMP180;53212;52.112;5.144;2023-07-31T12:23:35;100531.40;;;19.30
66403;BMP180;53212;52.112;5.144;2023-07-31T12:26:08;100524.20;;;19.40
66403;BMP180;53212;52.112;5.144;2023-07-31T12:28:41;100516.40;;;19.60
66403;BMP180;53212;52.112;5.144;2023-07-31T12:31:11;100518.80;;;19.74
66403;BMP180;53212;52.112;5.144;2023-07-31T12:33:38;100514.80;;;19.70
66403;BMP180;53212;52.112;5.144;2023-07-31T12:36:11;100505.20;;;19.70
66403;BMP180;53212;52.112;5.144;2023-07-31T12:38:37;100511.60;;;19.80
66403;BMP180;53212;52.112;5.144;2023-07-31T12:41:02;100504.40;;;19.90
66403;BMP180;53212;52.112;5.144;2023-07-31T12:43:28;100505.60;;;20.00
66403;BMP180;53212;52.112;5.144;2023-07-31T12:45:54;100505.60;;;20.14
66403;BMP180;53212;52.112;5.144;2023-07-31T12:48:21;100501.40;;;20.30
66403;BMP180;53212;52.112;5.144;2023-07-31T12:50:47;100497.80;;;20.20
66403;BMP180;53212;52.112;5.144;2023-07-31T12:53:12;100492.00;;;20.38
66403;BMP180;53212;52.112;5.144;2023-07-31T12:55:38;100483.60;;;20.62
66403;BMP180;53212;52.112;5.144;2023-07-31T12:58:03;100484.80;;;20.98
66403;BMP180;53212;52.112;5.144;2023-07-31T13:00:30;100477.00;;;21.30
66403;BMP180;53212;52.112;5.144;2023-07-31T13:02:55;100483.60;;;21.40
66403;BMP180;53212;52.112;5.144;2023-07-31T13:05:21;100490.40;;;21.40
66403;BMP180;53212;52.112;5.144;2023-07-31T13:07:49;100481.60;;;21.30
66403;BMP180;53212;52.112;5.144;2023-07-31T13:10:15;100488.20;;;21.10
66403;BMP180;53212;52.112;5.144;2023-07-31T13:12:40;100481.60;;;21.20
66403;BMP180;53212;52.112;5.144;2023-07-31T13:15:06;100479.20;;;21.50
66403;BMP180;53212;52.112;5.144;2023-07-31T13:17:32;100478.20;;;21.80
66403;BMP180;53212;52.112;5.144;2023-07-31T13:19:58;100482.40;;;21.80
66403;BMP180;53212;52.112;5.144;2023-07-31T13:22:24;100480.20;;;21.70
66403;BMP180;53212;52.112;5.144;2023-07-31T13:24:49;100474.80;;;21.50
66403;BMP180;53212;52.112;5.144;2023-07-31T13:27:15;100461.60;;;21.30
66403;BMP180;53212;52.112;5.144;2023-07-31T13:29:46;100459.40;;;21.20
66403;BMP180;53212;52.112;5.144;2023-07-31T13:32:11;100470.00;;;21.10
66403;BMP180;53212;52.112;5.144;2023-07-31T13:34:37;100460.00;;;21.10
66403;BMP180;53212;52.112;5.144;2023-07-31T13:37:03;100459.80;;;21.00
66403;BMP180;53212;52.112;5.144;2023-07-31T13:39:28;100462.60;;;20.90
66403;BMP180;53212;52.112;5.144;2023-07-31T13:41:54;100463.20;;;20.92
66403;BMP180;53212;52.112;5.144;2023-07-31T13:44:20;100454.20;;;21.00
66403;BMP180;53212;52.112;5.144;2023-07-31T13:46:45;100452.40;;;21.10
66403;BMP180;53212;52.112;5.144;2023-07-31T13:49:10;100458.40;;;21.10
66403;BMP180;53212;52.112;5.144;2023-07-31T13:51:36;100457.00;;;21.06
66403;BMP180;53212;52.112;5.144;2023-07-31T13:54:03;100458.00;;;21.00
66403;BMP180;53212;52.112;5.144;2023-07-31T13:56:28;100452.40;;;20.88
66403;BMP180;53212;52.112;5.144;2023-07-31T13:58:54;100451.80;;;20.70
66403;BMP180;53212;52.112;5.144;2023-07-31T14:01:19;100456.60;;;20.40